Terminal Aerodrome Forecast
Issued by NWS North Platte, NE

Home | Current Version | Previous Version | Text Only | Print | Product List | Glossary On
Versions: 1 2 3 4 5 6 7 8 9 10 11 12 13 14 15
000
FTUS43 KLBF 220500
TAFVTN
TAF
KVTN 220520Z 2206/2306 28010KT P6SM FEW050 BKN070 OVC080
     FM220900 30012G24KT 3SM -RA BR BKN008 OVC035
     FM221200 30014G25KT 6SM -SN BKN025 OVC100
     FM221500 32021G32KT 1SM -SN BLSN OVC020
     FM221800 32025G34KT 2SM -SN BLSN OVC011
     FM230100 32020G28KT 1SM -SN BLSN OVC006=

USA.gov is the U.S. government's official web portal to all federal, state and local government web resources and services.